sensor_id;sensor_type;location;lat;lon;timestamp;P1;durP1;ratioP1;P2;durP2;ratioP2
9559;SDS011;4818;50.860;4.648;2023-01-16T00:01:32;1.63;;;0.20;;
9559;SDS011;4818;50.860;4.648;2023-01-16T00:03:58;2.83;;;0.10;;
9559;SDS011;4818;50.860;4.648;2023-01-16T00:06:24;4.63;;;0.30;;
9559;SDS011;4818;50.860;4.648;2023-01-16T00:08:50;4.13;;;0.20;;
9559;SDS011;4818;50.860;4.648;2023-01-16T00:11:18;3.13;;;0.20;;
9559;SDS011;4818;50.860;4.648;2023-01-16T00:13:44;4.55;;;0.30;;
9559;SDS011;4818;50.860;4.648;2023-01-16T00:16:10;2.67;;;0.38;;
9559;SDS011;4818;50.860;4.648;2023-01-16T00:18:36;3.28;;;0.20;;
9559;SDS011;4818;50.860;4.648;2023-01-16T00:21:03;5.90;;;1.65;;
9559;SDS011;4818;50.860;4.648;2023-01-16T00:23:29;2.17;;;0.10;;
9559;SDS011;4818;50.860;4.648;2023-01-16T00:25:55;2.88;;;0.20;;
9559;SDS011;4818;50.860;4.648;2023-01-16T00:28:21;5.95;;;0.20;;
9559;SDS011;4818;50.860;4.648;2023-01-16T00:30:48;1.00;;;0.10;;
9559;SDS011;4818;50.860;4.648;2023-01-16T00:33:14;2.97;;;0.20;;
9559;SDS011;4818;50.860;4.648;2023-01-16T00:35:41;0.88;;;0.10;;
9559;SDS011;4818;50.860;4.648;2023-01-16T00:38:07;2.80;;;0.20;;
9559;SDS011;4818;50.860;4.648;2023-01-16T00:40:33;4.63;;;0.20;;
9559;SDS011;4818;50.860;4.648;2023-01-16T00:42:59;0.77;;;0.20;;
9559;SDS011;4818;50.860;4.648;2023-01-16T00:45:25;8.30;;;0.20;;
9559;SDS011;4818;50.860;4.648;2023-01-16T00:47:51;0.85;;;0.10;;
9559;SDS011;4818;50.860;4.648;2023-01-16T00:50:17;3.42;;;0.20;;
9559;SDS011;4818;50.860;4.648;2023-01-16T00:52:43;3.30;;;0.10;;
9559;SDS011;4818;50.860;4.648;2023-01-16T00:55:10;3.15;;;0.10;;
9559;SDS011;4818;50.860;4.648;2023-01-16T00:57:36;2.47;;;0.30;;
9559;SDS011;4818;50.860;4.648;2023-01-16T01:00:02;4.18;;;0.20;;
9559;SDS011;4818;50.860;4.648;2023-01-16T01:02:29;3.28;;;0.75;;
9559;SDS011;4818;50.860;4.648;2023-01-16T01:04:55;2.05;;;0.60;;
9559;SDS011;4818;50.860;4.648;2023-01-16T01:07:22;4.25;;;0.40;;
9559;SDS011;4818;50.860;4.648;2023-01-16T01:09:48;3.13;;;0.10;;
9559;SDS011;4818;50.860;4.648;2023-01-16T01:12:14;3.60;;;0.20;;
9559;SDS011;4818;50.860;4.648;2023-01-16T01:14:40;3.95;;;0.20;;
9559;SDS011;4818;50.860;4.648;2023-01-16T01:17:06;3.53;;;0.10;;
9559;SDS011;4818;50.860;4.648;2023-01-16T01:19:32;5.43;;;0.20;;
9559;SDS011;4818;50.860;4.648;2023-01-16T01:21:58;6.13;;;0.40;;
9559;SDS011;4818;50.860;4.648;2023-01-16T01:24:24;3.05;;;0.40;;
9559;SDS011;4818;50.860;4.648;2023-01-16T01:26:50;7.03;;;0.40;;
9559;SDS011;4818;50.860;4.648;2023-01-16T01:29:17;1.20;;;0.20;;
9559;SDS011;4818;50.860;4.648;2023-01-16T01:31:43;3.45;;;0.20;;
9559;SDS011;4818;50.860;4.648;2023-01-16T01:34:09;1.80;;;0.30;;
9559;SDS011;4818;50.860;4.648;2023-01-16T01:36:35;5.97;;;0.43;;
9559;SDS011;4818;50.860;4.648;2023-01-16T01:39:02;4.13;;;0.30;;
9559;SDS011;4818;50.860;4.648;2023-01-16T01:41:28;4.82;;;0.30;;
9559;SDS011;4818;50.860;4.648;2023-01-16T01:43:55;4.80;;;0.20;;
9559;SDS011;4818;50.860;4.648;2023-01-16T01:46:42;6.38;;;0.30;;
9559;SDS011;4818;50.860;4.648;2023-01-16T01:49:25;4.45;;;0.35;;
9559;SDS011;4818;50.860;4.648;2023-01-16T01:51:53;6.28;;;0.40;;
9559;SDS011;4818;50.860;4.648;2023-01-16T01:54:21;17.23;;;2.97;;
9559;SDS011;4818;50.860;4.648;2023-01-16T01:56:56;4.28;;;0.75;;
9559;SDS011;4818;50.860;4.648;2023-01-16T01:59:26;6.40;;;0.50;;
9559;SDS011;4818;50.860;4.648;2023-01-16T02:01:55;12.33;;;0.50;;
9559;SDS011;4818;50.860;4.648;2023-01-16T02:04:30;4.22;;;0.50;;
9559;SDS011;4818;50.860;4.648;2023-01-16T02:06:59;7.60;;;0.52;;
9559;SDS011;4818;50.860;4.648;2023-01-16T02:09:27;4.07;;;0.50;;
9559;SDS011;4818;50.860;4.648;2023-01-16T02:12:07;3.80;;;0.40;;
9559;SDS011;4818;50.860;4.648;2023-01-16T02:14:38;4.30;;;0.40;;
9559;SDS011;4818;50.860;4.648;2023-01-16T02:17:06;7.65;;;0.30;;
9559;SDS011;4818;50.860;4.648;2023-01-16T02:27:52;5.28;;;0.47;;
9559;SDS011;4818;50.860;4.648;2023-01-16T02:30:30;6.30;;;0.55;;
9559;SDS011;4818;50.860;4.648;2023-01-16T02:33:13;4.50;;;0.40;;
9559;SDS011;4818;50.860;4.648;2023-01-16T02:41:14;6.63;;;0.95;;
9559;SDS011;4818;50.860;4.648;2023-01-16T02:46:35;6.95;;;0.50;;
9559;SDS011;4818;50.860;4.648;2023-01-16T02:49:27;5.38;;;0.93;;
9559;SDS011;4818;50.860;4.648;2023-01-16T02:54:23;4.55;;;0.30;;
9559;SDS011;4818;50.860;4.648;2023-01-16T02:56:51;3.42;;;0.40;;
9559;SDS011;4818;50.860;4.648;2023-01-16T02:59:19;6.07;;;0.43;;
9559;SDS011;4818;50.860;4.648;2023-01-16T03:01:48;14.18;;;0.52;;
9559;SDS011;4818;50.860;4.648;2023-01-16T03:04:39;9.90;;;0.30;;
9559;SDS011;4818;50.860;4.648;2023-01-16T03:25:01;7.10;;;0.30;;
9559;SDS011;4818;50.860;4.648;2023-01-16T03:37:54;6.63;;;0.20;;
9559;SDS011;4818;50.860;4.648;2023-01-16T03:40:22;8.27;;;0.25;;
9559;SDS011;4818;50.860;4.648;2023-01-16T03:42:58;5.40;;;0.20;;
9559;SDS011;4818;50.860;4.648;2023-01-16T03:50:42;6.63;;;0.82;;
9559;SDS011;4818;50.860;4.648;2023-01-16T03:53:10;19.25;;;1.40;;
9559;SDS011;4818;50.860;4.648;2023-01-16T03:55:42;3.40;;;0.28;;
9559;SDS011;4818;50.860;4.648;2023-01-16T03:58:22;7.45;;;0.32;;
9559;SDS011;4818;50.860;4.648;2023-01-16T04:00:54;6.22;;;1.20;;
9559;SDS011;4818;50.860;4.648;2023-01-16T04:03:27;3.25;;;1.05;;
9559;SDS011;4818;50.860;4.648;2023-01-16T04:06:00;6.68;;;0.40;;
9559;SDS011;4818;50.860;4.648;2023-01-16T04:08:35;3.67;;;0.20;;
9559;SDS011;4818;50.860;4.648;2023-01-16T04:11:02;5.55;;;0.40;;
9559;SDS011;4818;50.860;4.648;2023-01-16T04:13:31;3.08;;;0.28;;
9559;SDS011;4818;50.860;4.648;2023-01-16T04:15:58;8.25;;;0.20;;
9559;SDS011;4818;50.860;4.648;2023-01-16T04:18:28;5.15;;;0.15;;
9559;SDS011;4818;50.860;4.648;2023-01-16T04:20:56;5.20;;;0.20;;
9559;SDS011;4818;50.860;4.648;2023-01-16T04:23:22;2.80;;;0.20;;
9559;SDS011;4818;50.860;4.648;2023-01-16T04:25:48;3.80;;;0.52;;
9559;SDS011;4818;50.860;4.648;2023-01-16T04:28:14;4.90;;;0.30;;
9559;SDS011;4818;50.860;4.648;2023-01-16T04:30:40;3.78;;;0.75;;
9559;SDS011;4818;50.860;4.648;2023-01-16T04:33:07;3.75;;;0.38;;
9559;SDS011;4818;50.860;4.648;2023-01-16T04:35:33;3.78;;;0.20;;
9559;SDS011;4818;50.860;4.648;2023-01-16T04:37:59;2.80;;;0.20;;
9559;SDS011;4818;50.860;4.648;2023-01-16T04:40:26;2.65;;;0.30;;
9559;SDS011;4818;50.860;4.648;2023-01-16T04:42:52;4.00;;;0.30;;
9559;SDS011;4818;50.860;4.648;2023-01-16T04:45:19;3.10;;;0.50;;
9559;SDS011;4818;50.860;4.648;2023-01-16T04:47:46;4.45;;;0.20;;
9559;SDS011;4818;50.860;4.648;2023-01-16T04:50:13;4.82;;;0.25;;
9559;SDS011;4818;50.860;4.648;2023-01-16T04:52:40;3.30;;;0.20;;
9559;SDS011;4818;50.860;4.648;2023-01-16T04:55:06;3.75;;;0.30;;
9559;SDS011;4818;50.860;4.648;2023-01-16T04:57:33;5.60;;;0.20;;
9559;SDS011;4818;50.860;4.648;2023-01-16T04:59:59;5.55;;;0.20;;
9559;SDS011;4818;50.860;4.648;2023-01-16T05:02:25;7.38;;;0.20;;
9559;SDS011;4818;50.860;4.648;2023-01-16T05:04:51;6.18;;;0.28;;
9559;SDS011;4818;50.860;4.648;2023-01-16T05:07:18;2.72;;;0.30;;
9559;SDS011;4818;50.860;4.648;2023-01-16T05:09:44;13.45;;;0.40;;
9559;SDS011;4818;50.860;4.648;2023-01-16T05:12:10;7.28;;;0.40;;
9559;SDS011;4818;50.860;4.648;2023-01-16T05:14:37;7.00;;;0.38;;
9559;SDS011;4818;50.860;4.648;2023-01-16T05:17:04;9.60;;;0.70;;
9559;SDS011;4818;50.860;4.648;2023-01-16T05:19:30;7.50;;;0.32;;
9559;SDS011;4818;50.860;4.648;2023-01-16T05:21:56;6.60;;;0.30;;
9559;SDS011;4818;50.860;4.648;2023-01-16T05:24:22;6.68;;;0.22;;
9559;SDS011;4818;50.860;4.648;2023-01-16T05:26:48;2.28;;;0.30;;
9559;SDS011;4818;50.860;4.648;2023-01-16T05:29:15;7.25;;;0.30;;
9559;SDS011;4818;50.860;4.648;2023-01-16T05:31:41;5.65;;;0.82;;
9559;SDS011;4818;50.860;4.648;2023-01-16T05:34:08;7.60;;;0.40;;
9559;SDS011;4818;50.860;4.648;2023-01-16T05:36:34;6.70;;;0.40;;
9559;SDS011;4818;50.860;4.648;2023-01-16T05:39:00;4.20;;;0.57;;
9559;SDS011;4818;50.860;4.648;2023-01-16T05:41:26;6.95;;;0.20;;
9559;SDS011;4818;50.860;4.648;2023-01-16T05:43:52;5.20;;;0.22;;
9559;SDS011;4818;50.860;4.648;2023-01-16T05:46:18;6.10;;;0.20;;
9559;SDS011;4818;50.860;4.648;2023-01-16T05:48:45;2.38;;;0.35;;
9559;SDS011;4818;50.860;4.648;2023-01-16T05:51:11;7.78;;;0.77;;
9559;SDS011;4818;50.860;4.648;2023-01-16T05:53:37;7.60;;;0.20;;
9559;SDS011;4818;50.860;4.648;2023-01-16T05:56:07;3.60;;;0.20;;
9559;SDS011;4818;50.860;4.648;2023-01-16T05:58:34;5.88;;;0.20;;
9559;SDS011;4818;50.860;4.648;2023-01-16T06:01:00;6.53;;;1.38;;
9559;SDS011;4818;50.860;4.648;2023-01-16T06:03:26;3.35;;;0.20;;
9559;SDS011;4818;50.860;4.648;2023-01-16T06:05:52;5.93;;;0.20;;
9559;SDS011;4818;50.860;4.648;2023-01-16T06:08:18;6.03;;;0.20;;
9559;SDS011;4818;50.860;4.648;2023-01-16T06:10:44;3.20;;;0.10;;
9559;SDS011;4818;50.860;4.648;2023-01-16T06:13:11;3.50;;;0.20;;
9559;SDS011;4818;50.860;4.648;2023-01-16T06:15:37;2.75;;;0.20;;
9559;SDS011;4818;50.860;4.648;2023-01-16T06:18:04;1.20;;;0.10;;
9559;SDS011;4818;50.860;4.648;2023-01-16T06:20:30;3.30;;;0.75;;
9559;SDS011;4818;50.860;4.648;2023-01-16T06:22:56;1.75;;;0.10;;
9559;SDS011;4818;50.860;4.648;2023-01-16T06:25:22;1.67;;;0.10;;
9559;SDS011;4818;50.860;4.648;2023-01-16T06:27:49;1.10;;;0.13;;
9559;SDS011;4818;50.860;4.648;2023-01-16T06:30:15;3.10;;;0.10;;
9559;SDS011;4818;50.860;4.648;2023-01-16T06:32:42;5.07;;;0.40;;
9559;SDS011;4818;50.860;4.648;2023-01-16T06:35:09;1.40;;;0.08;;
9559;SDS011;4818;50.860;4.648;2023-01-16T06:37:35;2.20;;;0.20;;
9559;SDS011;4818;50.860;4.648;2023-01-16T06:40:02;3.72;;;0.17;;
9559;SDS011;4818;50.860;4.648;2023-01-16T06:42:28;2.25;;;0.10;;
9559;SDS011;4818;50.860;4.648;2023-01-16T06:44:54;1.00;;;0.03;;
9559;SDS011;4818;50.860;4.648;2023-01-16T06:47:20;4.72;;;0.47;;
9559;SDS011;4818;50.860;4.648;2023-01-16T06:49:47;6.28;;;1.10;;
9559;SDS011;4818;50.860;4.648;2023-01-16T06:52:13;3.70;;;0.10;;
9559;SDS011;4818;50.860;4.648;2023-01-16T06:54:39;2.70;;;0.00;;
9559;SDS011;4818;50.860;4.648;2023-01-16T06:57:05;1.13;;;0.20;;
9559;SDS011;4818;50.860;4.648;2023-01-16T06:59:31;0.50;;;0.00;;
9559;SDS011;4818;50.860;4.648;2023-01-16T07:01:57;0.50;;;0.00;;
9559;SDS011;4818;50.860;4.648;2023-01-16T07:04:23;0.20;;;0.00;;
9559;SDS011;4818;50.860;4.648;2023-01-16T07:06:49;0.50;;;0.10;;
9559;SDS011;4818;50.860;4.648;2023-01-16T07:09:16;2.55;;;0.00;;
9559;SDS011;4818;50.860;4.648;2023-01-16T07:11:42;0.90;;;0.00;;
9559;SDS011;4818;50.860;4.648;2023-01-16T07:14:08;1.60;;;0.00;;
9559;SDS011;4818;50.860;4.648;2023-01-16T07:16:53;2.75;;;0.03;;
9559;SDS011;4818;50.860;4.648;2023-01-16T07:19:37;1.15;;;0.08;;
9559;SDS011;4818;50.860;4.648;2023-01-16T07:22:22;1.65;;;0.00;;
9559;SDS011;4818;50.860;4.648;2023-01-16T07:25:05;0.25;;;0.05;;
9559;SDS011;4818;50.860;4.648;2023-01-16T07:27:32;0.57;;;0.03;;
9559;SDS011;4818;50.860;4.648;2023-01-16T07:29:59;1.73;;;0.10;;
9559;SDS011;4818;50.860;4.648;2023-01-16T07:32:25;0.38;;;0.00;;
9559;SDS011;4818;50.860;4.648;2023-01-16T07:34:51;1.40;;;0.00;;
9559;SDS011;4818;50.860;4.648;2023-01-16T07:37:17;0.10;;;0.00;;
9559;SDS011;4818;50.860;4.648;2023-01-16T07:39:43;0.52;;;0.00;;
9559;SDS011;4818;50.860;4.648;2023-01-16T07:42:09;0.20;;;0.00;;
9559;SDS011;4818;50.860;4.648;2023-01-16T07:44:35;1.20;;;0.00;;
9559;SDS011;4818;50.860;4.648;2023-01-16T07:47:01;0.20;;;0.00;;
9559;SDS011;4818;50.860;4.648;2023-01-16T07:49:28;1.98;;;0.00;;
9559;SDS011;4818;50.860;4.648;2023-01-16T07:51:55;0.05;;;0.00;;
9559;SDS011;4818;50.860;4.648;2023-01-16T07:54:21;0.73;;;0.00;;
9559;SDS011;4818;50.860;4.648;2023-01-16T07:56:48;0.13;;;0.00;;
9559;SDS011;4818;50.860;4.648;2023-01-16T07:59:14;0.00;;;0.00;;
9559;SDS011;4818;50.860;4.648;2023-01-16T08:01:40;0.10;;;0.10;;
9559;SDS011;4818;50.860;4.648;2023-01-16T08:04:07;0.00;;;0.00;;
9559;SDS011;4818;50.860;4.648;2023-01-16T08:06:33;0.05;;;0.00;;
9559;SDS011;4818;50.860;4.648;2023-01-16T08:09:00;0.00;;;0.00;;
9559;SDS011;4818;50.860;4.648;2023-01-16T08:11:26;0.03;;;0.00;;
9559;SDS011;4818;50.860;4.648;2023-01-16T08:14:01;0.00;;;0.00;;
9559;SDS011;4818;50.860;4.648;2023-01-16T08:16:28;0.00;;;0.00;;
9559;SDS011;4818;50.860;4.648;2023-01-16T08:18:54;4.38;;;0.00;;
9559;SDS011;4818;50.860;4.648;2023-01-16T08:21:21;0.03;;;0.00;;
9559;SDS011;4818;50.860;4.648;2023-01-16T08:23:47;0.28;;;0.00;;
9559;SDS011;4818;50.860;4.648;2023-01-16T08:26:13;0.25;;;0.00;;
9559;SDS011;4818;50.860;4.648;2023-01-16T08:28:40;0.10;;;0.00;;
9559;SDS011;4818;50.860;4.648;2023-01-16T08:31:08;1.27;;;0.00;;
9559;SDS011;4818;50.860;4.648;2023-01-16T08:33:36;0.35;;;0.30;;
9559;SDS011;4818;50.860;4.648;2023-01-16T08:36:03;1.65;;;0.00;;
9559;SDS011;4818;50.860;4.648;2023-01-16T08:38:30;1.13;;;0.00;;
9559;SDS011;4818;50.860;4.648;2023-01-16T08:40:56;0.50;;;0.00;;
9559;SDS011;4818;50.860;4.648;2023-01-16T08:43:22;1.40;;;0.00;;
9559;SDS011;4818;50.860;4.648;2023-01-16T08:46:12;2.33;;;0.00;;
9559;SDS011;4818;50.860;4.648;2023-01-16T08:49:00;0.45;;;0.00;;
9559;SDS011;4818;50.860;4.648;2023-01-16T08:51:45;0.10;;;0.00;;
9559;SDS011;4818;50.860;4.648;2023-01-16T08:54:11;0.00;;;0.00;;
9559;SDS011;4818;50.860;4.648;2023-01-16T08:56:37;0.15;;;0.00;;
9559;SDS011;4818;50.860;4.648;2023-01-16T08:59:08;0.65;;;0.00;;
9559;SDS011;4818;50.860;4.648;2023-01-16T09:01:35;0.20;;;0.00;;
9559;SDS011;4818;50.860;4.648;2023-01-16T09:04:01;0.40;;;0.00;;
9559;SDS011;4818;50.860;4.648;2023-01-16T09:06:28;1.33;;;0.00;;
9559;SDS011;4818;50.860;4.648;2023-01-16T09:08:54;0.20;;;0.00;;
9559;SDS011;4818;50.860;4.648;2023-01-16T09:11:20;1.08;;;0.00;;
9559;SDS011;4818;50.860;4.648;2023-01-16T09:14:06;0.70;;;0.00;;
9559;SDS011;4818;50.860;4.648;2023-01-16T09:16:32;0.20;;;0.00;;
9559;SDS011;4818;50.860;4.648;2023-01-16T09:18:58;1.85;;;0.00;;
9559;SDS011;4818;50.860;4.648;2023-01-16T09:21:24;0.20;;;0.00;;
9559;SDS011;4818;50.860;4.648;2023-01-16T09:23:51;1.27;;;0.00;;
9559;SDS011;4818;50.860;4.648;2023-01-16T09:26:17;0.55;;;0.00;;
9559;SDS011;4818;50.860;4.648;2023-01-16T09:28:43;1.55;;;0.00;;
9559;SDS011;4818;50.860;4.648;2023-01-16T09:31:09;0.40;;;0.20;;
9559;SDS011;4818;50.860;4.648;2023-01-16T09:33:35;0.10;;;0.00;;
9559;SDS011;4818;50.860;4.648;2023-01-16T09:36:06;0.50;;;0.10;;
9559;SDS011;4818;50.860;4.648;2023-01-16T09:38:32;1.48;;;0.00;;
9559;SDS011;4818;50.860;4.648;2023-01-16T09:40:58;0.98;;;0.10;;
9559;SDS011;4818;50.860;4.648;2023-01-16T09:43:38;0.08;;;0.00;;
9559;SDS011;4818;50.860;4.648;2023-01-16T09:46:06;0.20;;;0.00;;
9559;SDS011;4818;50.860;4.648;2023-01-16T09:51:11;0.10;;;0.00;;
9559;SDS011;4818;50.860;4.648;2023-01-16T09:53:45;5.05;;;0.45;;
9559;SDS011;4818;50.860;4.648;2023-01-16T09:56:40;0.60;;;0.00;;
9559;SDS011;4818;50.860;4.648;2023-01-16T09:59:32;0.52;;;0.00;;
9559;SDS011;4818;50.860;4.648;2023-01-16T10:04:34;0.63;;;0.00;;
9559;SDS011;4818;50.860;4.648;2023-01-16T10:12:09;1.23;;;0.00;;
9559;SDS011;4818;50.860;4.648;2023-01-16T10:25:05;0.13;;;0.00;;
9559;SDS011;4818;50.860;4.648;2023-01-16T10:30:07;0.20;;;0.00;;
9559;SDS011;4818;50.860;4.648;2023-01-16T10:32:36;0.10;;;0.00;;
9559;SDS011;4818;50.860;4.648;2023-01-16T10:37:32;0.73;;;0.00;;
9559;SDS011;4818;50.860;4.648;2023-01-16T10:40:00;0.50;;;0.00;;
9559;SDS011;4818;50.860;4.648;2023-01-16T10:42:33;0.10;;;0.00;;
9559;SDS011;4818;50.860;4.648;2023-01-16T10:45:29;0.55;;;0.00;;
9559;SDS011;4818;50.860;4.648;2023-01-16T10:48:15;0.28;;;0.00;;
9559;SDS011;4818;50.860;4.648;2023-01-16T10:51:00;0.20;;;0.00;;
9559;SDS011;4818;50.860;4.648;2023-01-16T10:53:27;0.05;;;0.00;;
9559;SDS011;4818;50.860;4.648;2023-01-16T10:55:54;0.17;;;0.00;;
9559;SDS011;4818;50.860;4.648;2023-01-16T10:58:31;0.05;;;0.00;;
9559;SDS011;4818;50.860;4.648;2023-01-16T11:03:36;0.03;;;0.00;;
9559;SDS011;4818;50.860;4.648;2023-01-16T11:06:10;0.73;;;0.00;;
9559;SDS011;4818;50.860;4.648;2023-01-16T11:08:36;0.00;;;0.00;;
9559;SDS011;4818;50.860;4.648;2023-01-16T11:11:02;0.32;;;0.00;;
9559;SDS011;4818;50.860;4.648;2023-01-16T11:13:29;0.80;;;0.00;;
9559;SDS011;4818;50.860;4.648;2023-01-16T11:16:27;0.20;;;0.00;;
9559;SDS011;4818;50.860;4.648;2023-01-16T11:21:42;0.13;;;0.00;;
9559;SDS011;4818;50.860;4.648;2023-01-16T11:24:17;0.03;;;0.00;;
9559;SDS011;4818;50.860;4.648;2023-01-16T11:26:46;0.30;;;0.00;;
9559;SDS011;4818;50.860;4.648;2023-01-16T11:29:17;0.20;;;0.00;;
9559;SDS011;4818;50.860;4.648;2023-01-16T11:31:48;1.45;;;0.00;;
9559;SDS011;4818;50.860;4.648;2023-01-16T11:34:18;0.20;;;0.00;;
9559;SDS011;4818;50.860;4.648;2023-01-16T11:36:46;0.00;;;0.00;;
9559;SDS011;4818;50.860;4.648;2023-01-16T11:39:20;0.70;;;0.00;;
9559;SDS011;4818;50.860;4.648;2023-01-16T11:41:47;0.20;;;0.00;;
9559;SDS011;4818;50.860;4.648;2023-01-16T11:44:21;0.10;;;0.00;;
9559;SDS011;4818;50.860;4.648;2023-01-16T11:47:11;0.15;;;0.00;;
9559;SDS011;4818;50.860;4.648;2023-01-16T11:49:39;0.15;;;0.00;;
9559;SDS011;4818;50.860;4.648;2023-01-16T11:52:10;0.10;;;0.00;;
9559;SDS011;4818;50.860;4.648;2023-01-16T11:54:37;0.10;;;0.00;;
9559;SDS011;4818;50.860;4.648;2023-01-16T12:00:06;0.08;;;0.00;;
9559;SDS011;4818;50.860;4.648;2023-01-16T12:05:21;0.03;;;0.00;;
9559;SDS011;4818;50.860;4.648;2023-01-16T12:13:14;0.17;;;0.00;;
9559;SDS011;4818;50.860;4.648;2023-01-16T12:26:43;0.00;;;0.00;;
9559;SDS011;4818;50.860;4.648;2023-01-16T12:29:23;0.30;;;0.00;;
9559;SDS011;4818;50.860;4.648;2023-01-16T12:31:56;0.25;;;0.00;;
9559;SDS011;4818;50.860;4.648;2023-01-16T12:39:28;0.28;;;0.10;;
9559;SDS011;4818;50.860;4.648;2023-01-16T12:47:58;0.28;;;0.00;;
9559;SDS011;4818;50.860;4.648;2023-01-16T12:50:05;0.28;;;0.10;;
9559;SDS011;4818;50.860;4.648;2023-01-16T12:58:11;0.00;;;0.00;;
9559;SDS011;4818;50.860;4.648;2023-01-16T13:01:27;0.32;;;0.00;;
9559;SDS011;4818;50.860;4.648;2023-01-16T13:03:31;0.30;;;0.00;;
9559;SDS011;4818;50.860;4.648;2023-01-16T13:06:00;0.17;;;0.00;;
9559;SDS011;4818;50.860;4.648;2023-01-16T13:08:31;0.20;;;0.00;;
9559;SDS011;4818;50.860;4.648;2023-01-16T13:10:59;0.20;;;0.00;;
9559;SDS011;4818;50.860;4.648;2023-01-16T13:13:50;0.13;;;0.00;;
9559;SDS011;4818;50.860;4.648;2023-01-16T13:16:22;0.30;;;0.00;;
9559;SDS011;4818;50.860;4.648;2023-01-16T13:18:53;0.30;;;0.00;;
9559;SDS011;4818;50.860;4.648;2023-01-16T13:22:04;1.35;;;0.00;;
9559;SDS011;4818;50.860;4.648;2023-01-16T13:24:12;1.33;;;0.05;;
9559;SDS011;4818;50.860;4.648;2023-01-16T13:26:40;0.30;;;0.10;;
9559;SDS011;4818;50.860;4.648;2023-01-16T13:29:10;0.45;;;0.00;;
9559;SDS011;4818;50.860;4.648;2023-01-16T13:31:48;0.52;;;0.00;;
9559;SDS011;4818;50.860;4.648;2023-01-16T13:34:23;0.90;;;0.00;;
9559;SDS011;4818;50.860;4.648;2023-01-16T13:41:58;0.40;;;0.00;;
9559;SDS011;4818;50.860;4.648;2023-01-16T13:44:26;0.20;;;0.08;;
9559;SDS011;4818;50.860;4.648;2023-01-16T13:47:14;0.15;;;0.00;;
9559;SDS011;4818;50.860;4.648;2023-01-16T13:49:41;2.70;;;0.10;;
9559;SDS011;4818;50.860;4.648;2023-01-16T13:52:21;0.85;;;0.03;;
9559;SDS011;4818;50.860;4.648;2023-01-16T13:54:48;0.30;;;0.10;;
9559;SDS011;4818;50.860;4.648;2023-01-16T13:57:17;0.77;;;0.10;;
9559;SDS011;4818;50.860;4.648;2023-01-16T13:59:48;0.28;;;0.10;;
9559;SDS011;4818;50.860;4.648;2023-01-16T14:10:38;0.20;;;0.10;;
9559;SDS011;4818;50.860;4.648;2023-01-16T14:13:20;2.70;;;0.20;;
9559;SDS011;4818;50.860;4.648;2023-01-16T14:15:53;0.60;;;0.10;;
9559;SDS011;4818;50.860;4.648;2023-01-16T14:18:56;0.32;;;0.10;;
9559;SDS011;4818;50.860;4.648;2023-01-16T14:22:00;0.52;;;0.10;;
9559;SDS011;4818;50.860;4.648;2023-01-16T14:24:38;0.45;;;0.05;;
9559;SDS011;4818;50.860;4.648;2023-01-16T14:27:05;1.55;;;0.30;;
9559;SDS011;4818;50.860;4.648;2023-01-16T14:29:36;0.35;;;0.10;;
9559;SDS011;4818;50.860;4.648;2023-01-16T14:34:38;0.40;;;0.08;;
9559;SDS011;4818;50.860;4.648;2023-01-16T14:37:17;0.75;;;0.10;;
9559;SDS011;4818;50.860;4.648;2023-01-16T14:39:49;1.05;;;0.10;;
9559;SDS011;4818;50.860;4.648;2023-01-16T14:42:18;0.20;;;0.10;;
9559;SDS011;4818;50.860;4.648;2023-01-16T14:47:56;0.80;;;0.10;;
9559;SDS011;4818;50.860;4.648;2023-01-16T14:50:44;0.57;;;0.10;;
9559;SDS011;4818;50.860;4.648;2023-01-16T14:53:34;0.77;;;0.10;;
9559;SDS011;4818;50.860;4.648;2023-01-16T14:56:32;1.58;;;0.20;;
9559;SDS011;4818;50.860;4.648;2023-01-16T14:59:01;0.85;;;0.10;;
9559;SDS011;4818;50.860;4.648;2023-01-16T15:01:35;0.75;;;0.20;;
9559;SDS011;4818;50.860;4.648;2023-01-16T15:04:22;0.47;;;0.20;;
9559;SDS011;4818;50.860;4.648;2023-01-16T15:06:55;1.67;;;0.30;;
9559;SDS011;4818;50.860;4.648;2023-01-16T15:09:23;1.42;;;0.17;;
9559;SDS011;4818;50.860;4.648;2023-01-16T15:11:57;0.65;;;0.20;;
9559;SDS011;4818;50.860;4.648;2023-01-16T15:14:23;0.22;;;0.10;;
9559;SDS011;4818;50.860;4.648;2023-01-16T15:19:56;0.88;;;0.30;;
9559;SDS011;4818;50.860;4.648;2023-01-16T15:22:49;1.23;;;0.22;;
9559;SDS011;4818;50.860;4.648;2023-01-16T15:27:57;1.08;;;0.25;;
9559;SDS011;4818;50.860;4.648;2023-01-16T15:30:25;2.83;;;0.30;;
9559;SDS011;4818;50.860;4.648;2023-01-16T15:32:52;1.33;;;0.30;;
9559;SDS011;4818;50.860;4.648;2023-01-16T15:35:20;0.77;;;0.30;;
9559;SDS011;4818;50.860;4.648;2023-01-16T15:37:51;1.48;;;0.55;;
9559;SDS011;4818;50.860;4.648;2023-01-16T15:42:50;2.67;;;0.40;;
9559;SDS011;4818;50.860;4.648;2023-01-16T15:45:34;3.75;;;0.60;;
9559;SDS011;4818;50.860;4.648;2023-01-16T15:51:06;3.90;;;0.50;;
9559;SDS011;4818;50.860;4.648;2023-01-16T15:53:41;2.83;;;0.50;;
9559;SDS011;4818;50.860;4.648;2023-01-16T15:58:45;2.72;;;1.10;;
9559;SDS011;4818;50.860;4.648;2023-01-16T16:01:14;2.58;;;1.17;;
9559;SDS011;4818;50.860;4.648;2023-01-16T16:03:41;2.10;;;1.10;;
9559;SDS011;4818;50.860;4.648;2023-01-16T16:06:12;2.67;;;1.17;;
9559;SDS011;4818;50.860;4.648;2023-01-16T16:08:39;2.38;;;1.52;;
9559;SDS011;4818;50.860;4.648;2023-01-16T16:11:07;2.88;;;1.73;;
9559;SDS011;4818;50.860;4.648;2023-01-16T16:13:52;5.35;;;2.30;;
9559;SDS011;4818;50.860;4.648;2023-01-16T16:16:23;4.28;;;1.58;;
9559;SDS011;4818;50.860;4.648;2023-01-16T16:19:09;1.23;;;0.60;;
9559;SDS011;4818;50.860;4.648;2023-01-16T16:21:43;2.88;;;0.80;;
9559;SDS011;4818;50.860;4.648;2023-01-16T16:24:33;1.58;;;0.40;;
9559;SDS011;4818;50.860;4.648;2023-01-16T16:27:04;2.25;;;0.50;;
9559;SDS011;4818;50.860;4.648;2023-01-16T16:29:31;1.10;;;0.50;;
9559;SDS011;4818;50.860;4.648;2023-01-16T16:32:00;2.08;;;0.70;;
9559;SDS011;4818;50.860;4.648;2023-01-16T16:34:26;1.58;;;0.88;;
9559;SDS011;4818;50.860;4.648;2023-01-16T16:36:54;1.50;;;1.05;;
9559;SDS011;4818;50.860;4.648;2023-01-16T16:41:51;4.18;;;0.60;;
9559;SDS011;4818;50.860;4.648;2023-01-16T16:44:40;0.57;;;0.30;;
9559;SDS011;4818;50.860;4.648;2023-01-16T16:47:20;0.70;;;0.20;;
9559;SDS011;4818;50.860;4.648;2023-01-16T16:52:31;0.85;;;0.20;;
9559;SDS011;4818;50.860;4.648;2023-01-16T16:55:00;3.10;;;0.30;;
9559;SDS011;4818;50.860;4.648;2023-01-16T16:57:39;0.82;;;0.20;;
9559;SDS011;4818;50.860;4.648;2023-01-16T17:00:07;1.88;;;0.20;;
9559;SDS011;4818;50.860;4.648;2023-01-16T17:02:33;0.68;;;0.30;;
9559;SDS011;4818;50.860;4.648;2023-01-16T17:04:59;1.65;;;0.40;;
9559;SDS011;4818;50.860;4.648;2023-01-16T17:07:27;1.48;;;0.50;;
9559;SDS011;4818;50.860;4.648;2023-01-16T17:09:54;1.75;;;0.85;;
9559;SDS011;4818;50.860;4.648;2023-01-16T17:12:21;1.65;;;0.80;;
9559;SDS011;4818;50.860;4.648;2023-01-16T17:14:48;3.70;;;1.05;;
9559;SDS011;4818;50.860;4.648;2023-01-16T17:17:17;1.45;;;0.40;;
9559;SDS011;4818;50.860;4.648;2023-01-16T17:19:44;1.48;;;0.40;;
9559;SDS011;4818;50.860;4.648;2023-01-16T17:22:10;3.42;;;0.30;;
9559;SDS011;4818;50.860;4.648;2023-01-16T17:24:36;3.70;;;0.38;;
9559;SDS011;4818;50.860;4.648;2023-01-16T17:27:03;1.38;;;0.35;;
9559;SDS011;4818;50.860;4.648;2023-01-16T17:29:34;2.83;;;0.30;;
9559;SDS011;4818;50.860;4.648;2023-01-16T17:32:00;3.30;;;0.43;;
9559;SDS011;4818;50.860;4.648;2023-01-16T17:34:31;3.55;;;0.35;;
9559;SDS011;4818;50.860;4.648;2023-01-16T17:37:00;3.00;;;0.47;;
9559;SDS011;4818;50.860;4.648;2023-01-16T17:39:27;3.35;;;0.38;;
9559;SDS011;4818;50.860;4.648;2023-01-16T17:41:55;2.70;;;0.28;;
9559;SDS011;4818;50.860;4.648;2023-01-16T17:44:22;1.65;;;0.50;;
9559;SDS011;4818;50.860;4.648;2023-01-16T17:47:07;7.38;;;0.60;;
9559;SDS011;4818;50.860;4.648;2023-01-16T17:49:33;1.77;;;0.45;;
9559;SDS011;4818;50.860;4.648;2023-01-16T17:52:19;6.00;;;0.30;;
9559;SDS011;4818;50.860;4.648;2023-01-16T17:54:46;2.90;;;0.30;;
9559;SDS011;4818;50.860;4.648;2023-01-16T17:57:30;2.97;;;0.30;;
9559;SDS011;4818;50.860;4.648;2023-01-16T17:59:57;2.83;;;0.40;;
9559;SDS011;4818;50.860;4.648;2023-01-16T18:02:23;1.88;;;0.32;;
9559;SDS011;4818;50.860;4.648;2023-01-16T18:04:49;2.72;;;0.40;;
9559;SDS011;4818;50.860;4.648;2023-01-16T18:07:15;3.85;;;0.82;;
9559;SDS011;4818;50.860;4.648;2023-01-16T18:09:41;1.17;;;0.30;;
9559;SDS011;4818;50.860;4.648;2023-01-16T18:12:11;3.25;;;0.75;;
9559;SDS011;4818;50.860;4.648;2023-01-16T18:14:55;2.70;;;0.40;;